Time,TemperatureF,DewpointF,PressureIn,WindDirection,WindDirectionDegrees,WindSpeedMPH,WindSpeedGustMPH,Humidity,HourlyPrecipIn,Conditions,Clouds,dailyrainin,SoftwareType,DateUTC
2013-08-21 00:12:00,68.0,44.0,-100.00,WSW,237,5.0,8.0,42,0.00,,,0.00,,2013-08-21 06:12:00,
2013-08-21 00:22:00,68.0,44.0,-100.00,WSW,237,5.0,8.0,42,0.00,,,0.00,,2013-08-21 06:22:00,
2013-08-21 00:32:00,68.0,44.0,-100.00,WSW,237,5.0,8.0,42,0.00,,,0.00,,2013-08-21 06:32:00,
2013-08-21 01:11:00,65.0,44.0,-100.00,South,178,3.0,7.0,47,0.00,,,0.00,,2013-08-21 07:11:00,
2013-08-21 01:21:00,65.0,44.0,-100.00,South,178,3.0,7.0,47,0.00,,,0.00,,2013-08-21 07:21:00,
2013-08-21 01:32:00,65.0,44.0,-100.00,South,178,3.0,7.0,47,0.00,,,0.00,,2013-08-21 07:32:00,
2013-08-21 02:12:00,64.0,43.0,-100.00,SW,226,4.0,7.0,47,0.00,,,0.00,,2013-08-21 08:12:00,
2013-08-21 02:22:00,64.0,43.0,-100.00,SW,226,4.0,7.0,47,0.00,,,0.00,,2013-08-21 08:22:00,
2013-08-21 02:31:00,64.0,43.0,-100.00,SW,226,4.0,7.0,47,0.00,,,0.00,,2013-08-21 08:31:00,
2013-08-21 03:11:00,64.0,43.0,-100.00,WSW,245,5.0,7.0,46,0.00,,,0.00,,2013-08-21 09:11:00,
2013-08-21 03:22:00,64.0,43.0,-100.00,WSW,245,5.0,7.0,46,0.00,,,0.00,,2013-08-21 09:22:00,
2013-08-21 03:33:00,64.0,43.0,-100.00,WSW,245,5.0,7.0,46,0.00,,,0.00,,2013-08-21 09:33:00,
2013-08-21 04:12:00,62.0,40.0,-100.00,SSW,207,4.0,8.0,44,0.00,,,0.00,,2013-08-21 10:12:00,
2013-08-21 04:23:00,62.0,40.0,-100.00,SSW,207,4.0,8.0,44,0.00,,,0.00,,2013-08-21 10:23:00,
2013-08-21 04:33:00,62.0,40.0,-100.00,SSW,207,4.0,8.0,44,0.00,,,0.00,,2013-08-21 10:33:00,
2013-08-21 05:12:00,62.0,40.0,-100.00,SW,222,4.0,7.0,45,0.00,,,0.00,,2013-08-21 11:12:00,
2013-08-21 05:22:00,62.0,40.0,-100.00,SW,222,4.0,7.0,45,0.00,,,0.00,,2013-08-21 11:22:00,
2013-08-21 05:33:00,62.0,40.0,-100.00,SW,222,4.0,7.0,45,0.00,,,0.00,,2013-08-21 11:33:00,
2013-08-21 06:12:00,61.0,40.0,-100.00,SSW,211,2.0,6.0,45,0.00,,,0.00,,2013-08-21 12:12:00,
2013-08-21 06:22:00,61.0,40.0,-100.00,SSW,211,2.0,6.0,45,0.00,,,0.00,,2013-08-21 12:22:00,
2013-08-21 06:32:00,61.0,40.0,-100.00,SSW,211,2.0,6.0,45,0.00,,,0.00,,2013-08-21 12:32:00,
2013-08-21 07:12:00,59.0,39.0,-100.00,SSW,201,4.0,6.0,48,0.00,,,0.00,,2013-08-21 13:12:00,
2013-08-21 07:21:00,59.0,39.0,-100.00,SSW,201,4.0,6.0,48,0.00,,,0.00,,2013-08-21 13:21:00,
2013-08-21 07:32:00,59.0,39.0,-100.00,SSW,201,4.0,6.0,48,0.00,,,0.00,,2013-08-21 13:32:00,
2013-08-21 07:52:00,65.0,45.0,-100.00,SSW,202,4.0,7.0,48,0.00,,,0.00,,2013-08-21 13:52:00,
2013-08-21 08:02:00,65.0,45.0,-100.00,SSW,202,4.0,7.0,48,0.00,,,0.00,,2013-08-21 14:02:00,
2013-08-21 08:11:00,65.0,45.0,-100.00,SSW,202,4.0,7.0,48,0.00,,,0.00,,2013-08-21 14:11:00,
2013-08-21 08:21:00,65.0,45.0,-100.00,SSW,202,4.0,7.0,48,0.00,,,0.00,,2013-08-21 14:21:00,
2013-08-21 08:32:00,65.0,45.0,-100.00,SSW,202,4.0,7.0,48,0.00,,,0.00,,2013-08-21 14:32:00,
2013-08-21 09:34:00,78.0,43.0,-100.00,WSW,240,5.0,10.0,29,0.00,,,-99.99,,2013-08-21 15:34:00,
2013-08-21 10:13:00,78.0,43.0,-100.00,WSW,240,5.0,10.0,29,0.00,,,-99.99,,2013-08-21 16:13:00,
2013-08-21 10:24:00,78.0,43.0,-100.00,WSW,240,5.0,10.0,29,0.00,,,-99.99,,2013-08-21 16:24:00,
2013-08-21 10:34:00,82.0,45.0,-100.00,WSW,258,5.0,11.0,27,0.00,,,0.00,,2013-08-21 16:34:00,
2013-08-21 11:13:00,82.0,45.0,-100.00,WSW,258,5.0,11.0,27,0.00,,,0.00,,2013-08-21 17:13:00,
2013-08-21 11:23:00,82.0,45.0,-100.00,WSW,258,5.0,11.0,27,0.00,,,0.00,,2013-08-21 17:23:00,
2013-08-21 12:12:00,85.0,45.0,-100.00,WSW,258,4.0,11.0,25,0.00,,,0.00,,2013-08-21 18:12:00,
2013-08-21 12:22:00,85.0,45.0,-100.00,WSW,258,4.0,11.0,25,0.00,,,0.00,,2013-08-21 18:22:00,
2013-08-21 12:32:00,85.0,45.0,-100.00,WSW,258,4.0,11.0,25,0.00,,,0.00,,2013-08-21 18:32:00,
2013-08-21 13:12:00,86.0,44.0,-100.00,North,353,3.0,12.0,23,0.00,,,0.00,,2013-08-21 19:12:00,
2013-08-21 13:22:00,86.0,44.0,-100.00,North,353,3.0,12.0,23,0.00,,,0.00,,2013-08-21 19:22:00,
2013-08-21 13:32:00,86.0,44.0,-100.00,North,353,3.0,12.0,23,0.00,,,0.00,,2013-08-21 19:32:00,
2013-08-21 14:11:00,89.0,45.0,-100.00,NNW,347,5.0,12.0,22,0.00,,,0.00,,2013-08-21 20:11:00,
2013-08-21 14:22:00,89.0,45.0,-100.00,NNW,347,5.0,12.0,22,0.00,,,0.00,,2013-08-21 20:22:00,
2013-08-21 14:32:00,89.0,45.0,-100.00,NNW,347,5.0,12.0,22,0.00,,,0.00,,2013-08-21 20:32:00,
2013-08-21 14:34:00,85.0,45.0,-100.00,East,88,7.0,14.0,25,0.00,,,0.00,,2013-08-21 20:34:00,
2013-08-21 15:12:00,85.0,45.0,-100.00,East,88,7.0,14.0,25,0.00,,,0.00,,2013-08-21 21:12:00,
2013-08-21 15:21:00,85.0,45.0,-100.00,East,88,7.0,14.0,25,0.00,,,0.00,,2013-08-21 21:21:00,
2013-08-21 17:53:00,76.0,55.0,-100.00,South,174,6.0,10.0,49,-99.99,,,-99.99,,2013-08-21 23:53:00,
2013-08-21 18:02:00,76.0,55.0,-100.00,South,174,6.0,10.0,49,-99.99,,,-99.99,,2013-08-22 00:02:00,
2013-08-21 19:11:00,75.0,45.0,-100.00,SSW,204,7.0,13.0,35,0.00,,,0.02,,2013-08-22 01:11:00,
2013-08-21 19:22:00,75.0,45.0,-100.00,SSW,204,7.0,13.0,35,0.00,,,0.02,,2013-08-22 01:22:00,
2013-08-21 19:32:00,75.0,45.0,-100.00,SSW,204,7.0,13.0,35,0.00,,,0.02,,2013-08-22 01:32:00,
2013-08-21 20:12:00,73.0,44.0,-100.00,West,277,8.0,18.0,36,0.00,,,0.02,,2013-08-22 02:12:00,
2013-08-21 20:22:00,73.0,44.0,-100.00,West,277,8.0,18.0,36,0.00,,,0.02,,2013-08-22 02:22:00,
2013-08-21 20:32:00,73.0,44.0,-100.00,West,277,8.0,18.0,36,0.00,,,0.02,,2013-08-22 02:32:00,
2013-08-21 20:34:00,61.0,50.0,-100.00,WNW,295,7.0,15.0,67,0.01,,,0.03,,2013-08-22 02:34:00,
2013-08-21 21:12:00,61.0,50.0,-100.00,WNW,295,7.0,15.0,67,0.01,,,0.03,,2013-08-22 03:12:00,
2013-08-21 21:22:00,61.0,50.0,-100.00,WNW,295,7.0,15.0,67,0.01,,,0.03,,2013-08-22 03:22:00,
2013-08-21 21:34:00,59.0,54.0,-100.00,West,281,1.0,11.0,85,0.04,,,0.07,,2013-08-22 03:34:00,
2013-08-21 21:54:00,59.0,54.0,-100.00,West,281,1.0,11.0,85,0.04,,,0.07,,2013-08-22 03:54:00,
2013-08-21 22:04:00,59.0,54.0,-100.00,West,281,1.0,11.0,85,0.04,,,0.07,,2013-08-22 04:04:00,
2013-08-21 22:14:00,59.0,54.0,-100.00,West,281,1.0,11.0,85,0.04,,,0.07,,2013-08-22 04:14:00,
2013-08-21 22:23:00,59.0,54.0,-100.00,West,281,1.0,11.0,85,0.04,,,0.07,,2013-08-22 04:23:00,
2013-08-21 22:54:00,59.0,57.0,-100.00,SSW,202,7.0,14.0,93,0.02,,,0.09,,2013-08-22 04:54:00,
2013-08-21 23:03:00,59.0,57.0,-100.00,SSW,202,7.0,14.0,93,0.02,,,0.09,,2013-08-22 05:03:00,
2013-08-21 23:12:00,59.0,57.0,-100.00,SSW,202,7.0,14.0,93,0.02,,,0.09,,2013-08-22 05:12:00,
2013-08-21 23:22:00,59.0,57.0,-100.00,SSW,202,7.0,14.0,93,0.02,,,0.09,,2013-08-22 05:22:00,
2013-08-21 23:33:00,59.0,57.0,-100.00,SSW,202,7.0,14.0,93,0.02,,,0.09,,2013-08-22 05:33:00,